Time;durP1;ratioP1;P1;durP2;ratioP2;P2;SDS_P1;SDS_P2;PMS_P1;PMS_P2;Temp;Humidity;BMP_temperature;BMP_pressure;BME280_temperature;BME280_humidity;BME280_pressure;Samples;Min_cycle;Max_cycle;Signal;HPM_P1;HPM_P2
2022/09/27 07:09:00;;;;;;;;;;;10.20;99.90;;;;;;6308747;22;20375;-77
2022/09/27 08:13:58;;;;;;;;;;;11.00;99.90;;;;;;6271462;22;19961;-78
2022/09/27 08:16:34;;;;;;;;;;;11.10;99.90;;;;;;6256356;22;20176;-80
2022/09/27 08:23:03;;;;;;;;;;;11.10;99.90;;;;;;6308445;22;19990;-81
2022/09/27 09:22:33;;;;;;;;;;;12.40;99.90;;;;;;6308061;22;19953;-82
2022/09/27 09:52:55;;;;;;;;;;;12.10;99.90;;;;;;6305808;22;19942;-73
2022/09/27 09:55:48;;;;;;;;;;;12.00;99.90;;;;;;6278808;22;20245;-77
2022/09/27 10:02:02;;;;;;;;;;;11.80;99.90;;;;;;6278691;22;19917;-76
2022/09/27 10:04:46;;;;;;;;;;;11.80;99.90;;;;;;6253201;22;19915;-78
2022/09/27 10:07:19;;;;;;;;;;;12.10;99.90;;;;;;6227718;22;19936;-72
2022/09/27 10:10:29;;;;;;;;;;;12.20;99.90;;;;;;6278792;22;19991;-78
2022/09/27 17:57:09;;;;;;;;;;;9.40;99.90;;;;;;6276821;22;19953;-80
2022/09/27 18:02:46;;;;;;;;;;;9.30;99.90;;;;;;6240032;22;19918;-73
2022/09/27 18:05:11;;;;;;;;;;;9.30;99.90;;;;;;6248398;22;20017;-73
2022/09/27 18:07:37;;;;;;;;;;;9.30;99.90;;;;;;6248095;22;20333;-74
2022/09/27 18:10:03;;;;;;;;;;;9.30;99.90;;;;;;6248126;22;19965;-74
2022/09/27 18:12:33;;;;;;;;;;;9.20;99.90;;;;;;6223255;22;19919;-74
2022/09/27 18:14:59;;;;;;;;;;;9.20;99.90;;;;;;6198850;22;20056;-74
2022/09/27 18:17:26;;;;;;;;;;;9.20;99.90;;;;;;6275153;22;19915;-75
2022/09/27 18:19:55;;;;;;;;;;;9.20;99.90;;;;;;6223325;22;20040;-74
2022/09/27 18:22:24;;;;;;;;;;;9.30;99.90;;;;;;6249378;22;19922;-74
2022/09/27 18:24:53;;;;;;;;;;;9.20;99.90;;;;;;6225432;22;19923;-74
2022/09/27 18:27:19;;;;;;;;;;;9.20;99.90;;;;;;6202784;22;19968;-75
2022/09/27 18:29:44;;;;;;;;;;;9.10;99.90;;;;;;6253288;22;19919;-75
2022/09/27 18:32:16;;;;;;;;;;;9.10;99.90;;;;;;6254937;22;19916;-76
2022/09/27 18:34:45;;;;;;;;;;;9.20;99.90;;;;;;6272117;22;19919;-75
2022/09/27 18:37:16;;;;;;;;;;;9.20;99.90;;;;;;6273889;22;19959;-79
2022/09/27 18:46:20;;;;;;;;;;;9.20;99.90;;;;;;6302029;22;19919;-79
2022/09/27 18:52:23;;;;;;;;;;;9.20;99.90;;;;;;6309210;22;19914;-76
2022/09/27 19:15:55;;;;;;;;;;;9.10;99.90;;;;;;6152619;23;19919;-78
2022/09/27 19:19:35;;;;;;;;;;;9.00;99.90;;;;;;6044946;23;19965;-76
2022/09/27 19:22:02;;;;;;;;;;;9.10;99.90;;;;;;6063883;23;19952;-75
2022/09/27 19:24:45;;;;;;;;;;;9.10;99.90;;;;;;6014918;23;19918;-77
2022/09/27 19:27:11;;;;;;;;;;;9.10;99.90;;;;;;6057419;23;20308;-73
2022/09/27 19:29:37;;;;;;;;;;;9.00;99.90;;;;;;6096602;23;19919;-72
2022/09/27 19:32:05;;;;;;;;;;;9.10;99.90;;;;;;6187917;23;19920;-75
2022/09/27 19:34:33;;;;;;;;;;;9.00;99.90;;;;;;6163905;23;20046;-73
2022/09/27 19:37:40;;;;;;;;;;;9.00;99.90;;;;;;6188227;23;19920;-76
2022/09/27 20:30:10;;;;;;;;;;;8.80;99.90;;;;;;6257512;22;19919;-71
2022/09/27 21:01:05;;;;;;;;;;;8.70;99.90;;;;;;6276028;22;19923;-73
2022/09/27 21:03:30;;;;;;;;;;;8.70;99.90;;;;;;6224079;22;19929;-71
2022/09/27 21:05:56;;;;;;;;;;;8.60;99.90;;;;;;6222733;22;20372;-72
2022/09/27 21:08:22;;;;;;;;;;;8.60;99.90;;;;;;6192336;23;19915;-73
2022/09/27 21:10:48;;;;;;;;;;;8.60;99.90;;;;;;6217554;23;20241;-73
2022/09/27 21:13:26;;;;;;;;;;;8.60;99.90;;;;;;6193323;23;19926;-79
2022/09/27 21:23:43;;;;;;;;;;;;;;;;;;;;;
